sensor_id;sensor_type;location;lat;lon;timestamp;temperature;humidity
39665;DHT22;26679;50.872;4.332;2022-10-14T00:01:34;15.40;99.90
39665;DHT22;26679;50.872;4.332;2022-10-14T00:03:59;15.40;99.90
39665;DHT22;26679;50.872;4.332;2022-10-14T00:06:26;15.30;99.90
39665;DHT22;26679;50.872;4.332;2022-10-14T00:08:52;15.30;99.90
39665;DHT22;26679;50.872;4.332;2022-10-14T00:11:25;15.50;99.90
39665;DHT22;26679;50.872;4.332;2022-10-14T00:13:55;15.50;99.90
39665;DHT22;26679;50.872;4.332;2022-10-14T00:16:21;15.50;99.90
39665;DHT22;26679;50.872;4.332;2022-10-14T00:18:47;15.60;99.90
39665;DHT22;26679;50.872;4.332;2022-10-14T00:21:13;15.50;99.90
39665;DHT22;26679;50.872;4.332;2022-10-14T00:23:39;15.50;99.90
39665;DHT22;26679;50.872;4.332;2022-10-14T00:26:04;15.50;99.90
39665;DHT22;26679;50.872;4.332;2022-10-14T00:28:30;15.50;99.90
39665;DHT22;26679;50.872;4.332;2022-10-14T00:31:00;15.60;99.90
39665;DHT22;26679;50.872;4.332;2022-10-14T00:33:26;15.50;99.90
39665;DHT22;26679;50.872;4.332;2022-10-14T00:35:59;15.60;99.90
39665;DHT22;26679;50.872;4.332;2022-10-14T00:38:25;15.50;99.90
39665;DHT22;26679;50.872;4.332;2022-10-14T00:40:51;15.50;99.90
39665;DHT22;26679;50.872;4.332;2022-10-14T00:43:17;15.60;99.90
39665;DHT22;26679;50.872;4.332;2022-10-14T00:45:42;15.60;99.90
39665;DHT22;26679;50.872;4.332;2022-10-14T00:48:08;15.70;99.90
39665;DHT22;26679;50.872;4.332;2022-10-14T00:50:34;15.60;99.90
39665;DHT22;26679;50.872;4.332;2022-10-14T00:53:00;15.60;99.90
39665;DHT22;26679;50.872;4.332;2022-10-14T00:55:27;15.80;99.90
39665;DHT22;26679;50.872;4.332;2022-10-14T00:57:53;15.70;99.90
39665;DHT22;26679;50.872;4.332;2022-10-14T01:00:19;15.70;99.90
39665;DHT22;26679;50.872;4.332;2022-10-14T01:02:45;15.80;99.90
39665;DHT22;26679;50.872;4.332;2022-10-14T01:05:11;15.70;99.90
39665;DHT22;26679;50.872;4.332;2022-10-14T01:20:35;15.70;99.90
39665;DHT22;26679;50.872;4.332;2022-10-14T01:25:35;15.70;99.90
39665;DHT22;26679;50.872;4.332;2022-10-14T01:30:43;15.70;99.90
39665;DHT22;26679;50.872;4.332;2022-10-14T01:33:12;15.70;99.90
39665;DHT22;26679;50.872;4.332;2022-10-14T01:38:19;15.70;99.90
39665;DHT22;26679;50.872;4.332;2022-10-14T01:40:49;15.60;99.90
39665;DHT22;26679;50.872;4.332;2022-10-14T01:43:16;15.60;99.90
39665;DHT22;26679;50.872;4.332;2022-10-14T01:45:43;15.60;99.90
39665;DHT22;26679;50.872;4.332;2022-10-14T01:48:10;15.70;99.90
39665;DHT22;26679;50.872;4.332;2022-10-14T01:50:37;15.70;99.90
39665;DHT22;26679;50.872;4.332;2022-10-14T01:53:04;15.80;99.90
39665;DHT22;26679;50.872;4.332;2022-10-14T01:55:35;15.70;99.90
39665;DHT22;26679;50.872;4.332;2022-10-14T01:58:02;15.70;99.90
39665;DHT22;26679;50.872;4.332;2022-10-14T02:00:28;15.70;99.90
39665;DHT22;26679;50.872;4.332;2022-10-14T02:02:53;15.60;99.90
39665;DHT22;26679;50.872;4.332;2022-10-14T02:05:25;15.60;99.90
39665;DHT22;26679;50.872;4.332;2022-10-14T02:10:33;15.50;99.90
39665;DHT22;26679;50.872;4.332;2022-10-14T02:23:18;15.40;99.90
39665;DHT22;26679;50.872;4.332;2022-10-14T02:25:45;15.40;99.90
39665;DHT22;26679;50.872;4.332;2022-10-14T02:28:14;15.30;99.90
39665;DHT22;26679;50.872;4.332;2022-10-14T02:30:42;15.40;99.90
39665;DHT22;26679;50.872;4.332;2022-10-14T02:33:08;15.20;99.90
39665;DHT22;26679;50.872;4.332;2022-10-14T02:35:34;15.30;99.90
39665;DHT22;26679;50.872;4.332;2022-10-14T02:38:01;15.20;99.90
39665;DHT22;26679;50.872;4.332;2022-10-14T02:40:32;15.30;99.90
39665;DHT22;26679;50.872;4.332;2022-10-14T02:43:00;15.10;99.90
39665;DHT22;26679;50.872;4.332;2022-10-14T02:45:25;15.20;99.90
39665;DHT22;26679;50.872;4.332;2022-10-14T02:47:52;15.40;99.90
39665;DHT22;26679;50.872;4.332;2022-10-14T02:50:17;15.50;99.90
39665;DHT22;26679;50.872;4.332;2022-10-14T02:52:43;15.50;99.90
39665;DHT22;26679;50.872;4.332;2022-10-14T02:55:09;15.60;99.90
39665;DHT22;26679;50.872;4.332;2022-10-14T02:57:34;15.50;99.90
39665;DHT22;26679;50.872;4.332;2022-10-14T03:00:00;15.40;99.90
39665;DHT22;26679;50.872;4.332;2022-10-14T03:02:25;15.50;99.90
39665;DHT22;26679;50.872;4.332;2022-10-14T03:04:51;15.40;99.90
39665;DHT22;26679;50.872;4.332;2022-10-14T03:07:16;15.50;99.90
39665;DHT22;26679;50.872;4.332;2022-10-14T03:09:42;15.60;99.90
39665;DHT22;26679;50.872;4.332;2022-10-14T03:12:07;15.60;99.90
39665;DHT22;26679;50.872;4.332;2022-10-14T03:14:33;15.60;99.90
39665;DHT22;26679;50.872;4.332;2022-10-14T03:16:58;15.60;99.90
39665;DHT22;26679;50.872;4.332;2022-10-14T03:19:24;15.60;99.90
39665;DHT22;26679;50.872;4.332;2022-10-14T03:21:49;15.70;99.90
39665;DHT22;26679;50.872;4.332;2022-10-14T03:24:15;15.80;99.90
39665;DHT22;26679;50.872;4.332;2022-10-14T03:26:41;15.80;99.90
39665;DHT22;26679;50.872;4.332;2022-10-14T03:29:06;15.80;99.90
39665;DHT22;26679;50.872;4.332;2022-10-14T03:31:32;15.80;99.90
39665;DHT22;26679;50.872;4.332;2022-10-14T03:33:57;15.80;99.90
39665;DHT22;26679;50.872;4.332;2022-10-14T03:36:23;15.80;99.90
39665;DHT22;26679;50.872;4.332;2022-10-14T03:38:48;15.70;99.90
39665;DHT22;26679;50.872;4.332;2022-10-14T03:41:14;15.70;99.90
39665;DHT22;26679;50.872;4.332;2022-10-14T03:43:39;15.70;99.90
39665;DHT22;26679;50.872;4.332;2022-10-14T03:46:05;15.50;99.90
39665;DHT22;26679;50.872;4.332;2022-10-14T03:48:30;15.60;99.90
39665;DHT22;26679;50.872;4.332;2022-10-14T03:50:56;15.60;99.90
39665;DHT22;26679;50.872;4.332;2022-10-14T03:53:21;15.60;99.90
39665;DHT22;26679;50.872;4.332;2022-10-14T03:55:47;15.60;99.90
39665;DHT22;26679;50.872;4.332;2022-10-14T03:58:12;15.50;99.90
39665;DHT22;26679;50.872;4.332;2022-10-14T04:00:38;15.50;99.90
39665;DHT22;26679;50.872;4.332;2022-10-14T04:03:06;15.50;99.90
39665;DHT22;26679;50.872;4.332;2022-10-14T04:05:32;15.40;99.90
39665;DHT22;26679;50.872;4.332;2022-10-14T04:07:59;15.40;99.90
39665;DHT22;26679;50.872;4.332;2022-10-14T04:10:25;15.30;99.90
39665;DHT22;26679;50.872;4.332;2022-10-14T04:12:51;15.30;99.90
39665;DHT22;26679;50.872;4.332;2022-10-14T04:15:17;15.20;99.90
39665;DHT22;26679;50.872;4.332;2022-10-14T04:17:42;15.30;99.90
39665;DHT22;26679;50.872;4.332;2022-10-14T04:20:08;15.40;99.90
39665;DHT22;26679;50.872;4.332;2022-10-14T04:22:33;15.30;99.90
39665;DHT22;26679;50.872;4.332;2022-10-14T04:24:59;15.40;99.90
39665;DHT22;26679;50.872;4.332;2022-10-14T04:27:24;15.50;99.90
39665;DHT22;26679;50.872;4.332;2022-10-14T04:29:50;15.50;99.90
39665;DHT22;26679;50.872;4.332;2022-10-14T04:32:17;15.50;99.90
39665;DHT22;26679;50.872;4.332;2022-10-14T04:34:42;15.40;99.90
39665;DHT22;26679;50.872;4.332;2022-10-14T04:37:08;15.40;99.90
39665;DHT22;26679;50.872;4.332;2022-10-14T04:39:33;15.40;99.90
39665;DHT22;26679;50.872;4.332;2022-10-14T04:41:59;15.30;99.90
39665;DHT22;26679;50.872;4.332;2022-10-14T04:44:24;15.30;99.90
39665;DHT22;26679;50.872;4.332;2022-10-14T04:46:50;15.30;99.90
39665;DHT22;26679;50.872;4.332;2022-10-14T04:49:15;15.40;99.90
39665;DHT22;26679;50.872;4.332;2022-10-14T04:51:42;15.40;99.90
39665;DHT22;26679;50.872;4.332;2022-10-14T04:54:07;15.50;99.90
39665;DHT22;26679;50.872;4.332;2022-10-14T04:56:34;15.50;99.90
39665;DHT22;26679;50.872;4.332;2022-10-14T04:58:59;15.40;99.90
39665;DHT22;26679;50.872;4.332;2022-10-14T05:01:25;15.50;99.90
39665;DHT22;26679;50.872;4.332;2022-10-14T05:03:51;15.40;99.90
39665;DHT22;26679;50.872;4.332;2022-10-14T05:06:17;15.50;99.90
39665;DHT22;26679;50.872;4.332;2022-10-14T05:08:42;15.30;99.90
39665;DHT22;26679;50.872;4.332;2022-10-14T05:11:09;15.30;99.90
39665;DHT22;26679;50.872;4.332;2022-10-14T05:13:34;15.30;99.90
39665;DHT22;26679;50.872;4.332;2022-10-14T05:16:00;15.30;99.90
39665;DHT22;26679;50.872;4.332;2022-10-14T05:18:27;15.20;99.90
39665;DHT22;26679;50.872;4.332;2022-10-14T05:20:52;15.20;99.90
39665;DHT22;26679;50.872;4.332;2022-10-14T05:23:18;15.10;99.90
39665;DHT22;26679;50.872;4.332;2022-10-14T05:25:43;15.00;99.90
39665;DHT22;26679;50.872;4.332;2022-10-14T05:28:09;15.00;99.90
39665;DHT22;26679;50.872;4.332;2022-10-14T05:30:34;14.90;99.90
39665;DHT22;26679;50.872;4.332;2022-10-14T05:33:00;15.00;99.90
39665;DHT22;26679;50.872;4.332;2022-10-14T05:35:25;15.00;99.90
39665;DHT22;26679;50.872;4.332;2022-10-14T05:37:54;15.00;99.90
39665;DHT22;26679;50.872;4.332;2022-10-14T05:40:21;14.90;99.90
39665;DHT22;26679;50.872;4.332;2022-10-14T05:42:46;14.90;99.90
39665;DHT22;26679;50.872;4.332;2022-10-14T05:45:12;15.00;99.90
39665;DHT22;26679;50.872;4.332;2022-10-14T05:47:37;15.00;99.90
39665;DHT22;26679;50.872;4.332;2022-10-14T05:50:03;15.00;99.90
39665;DHT22;26679;50.872;4.332;2022-10-14T05:52:29;14.90;99.90
39665;DHT22;26679;50.872;4.332;2022-10-14T05:54:56;14.90;99.90
39665;DHT22;26679;50.872;4.332;2022-10-14T05:57:21;14.80;99.90
39665;DHT22;26679;50.872;4.332;2022-10-14T05:59:47;14.90;99.90
39665;DHT22;26679;50.872;4.332;2022-10-14T06:02:12;14.70;99.90
39665;DHT22;26679;50.872;4.332;2022-10-14T06:04:38;14.60;99.90
39665;DHT22;26679;50.872;4.332;2022-10-14T06:07:07;14.60;99.90
39665;DHT22;26679;50.872;4.332;2022-10-14T06:09:35;14.70;99.90
39665;DHT22;26679;50.872;4.332;2022-10-14T06:12:00;14.70;99.90
39665;DHT22;26679;50.872;4.332;2022-10-14T06:14:26;14.80;99.90
39665;DHT22;26679;50.872;4.332;2022-10-14T06:16:51;14.80;99.90
39665;DHT22;26679;50.872;4.332;2022-10-14T06:19:17;14.70;99.90
39665;DHT22;26679;50.872;4.332;2022-10-14T06:21:42;14.70;99.90
39665;DHT22;26679;50.872;4.332;2022-10-14T06:24:09;14.70;99.90
39665;DHT22;26679;50.872;4.332;2022-10-14T06:26:34;14.70;99.90
39665;DHT22;26679;50.872;4.332;2022-10-14T06:29:00;14.70;99.90
39665;DHT22;26679;50.872;4.332;2022-10-14T06:31:27;14.80;99.90
39665;DHT22;26679;50.872;4.332;2022-10-14T06:33:52;14.90;99.90
39665;DHT22;26679;50.872;4.332;2022-10-14T06:36:19;14.80;99.90
39665;DHT22;26679;50.872;4.332;2022-10-14T06:38:45;14.80;99.90
39665;DHT22;26679;50.872;4.332;2022-10-14T06:41:12;14.70;99.90
39665;DHT22;26679;50.872;4.332;2022-10-14T06:43:40;14.60;99.90
39665;DHT22;26679;50.872;4.332;2022-10-14T06:46:06;14.70;99.90
39665;DHT22;26679;50.872;4.332;2022-10-14T06:48:34;14.70;99.90
39665;DHT22;26679;50.872;4.332;2022-10-14T06:51:00;14.70;99.90
39665;DHT22;26679;50.872;4.332;2022-10-14T06:53:26;14.70;99.90
39665;DHT22;26679;50.872;4.332;2022-10-14T06:55:59;14.70;99.90
39665;DHT22;26679;50.872;4.332;2022-10-14T06:58:24;14.70;99.90
39665;DHT22;26679;50.872;4.332;2022-10-14T07:00:52;14.70;99.90
39665;DHT22;26679;50.872;4.332;2022-10-14T07:03:17;14.70;99.90
39665;DHT22;26679;50.872;4.332;2022-10-14T07:05:43;14.80;99.90
39665;DHT22;26679;50.872;4.332;2022-10-14T07:08:08;14.90;99.90
39665;DHT22;26679;50.872;4.332;2022-10-14T07:10:34;14.80;99.90
39665;DHT22;26679;50.872;4.332;2022-10-14T07:12:59;14.70;99.90
39665;DHT22;26679;50.872;4.332;2022-10-14T07:15:25;14.80;99.90
39665;DHT22;26679;50.872;4.332;2022-10-14T07:17:51;14.80;99.90
39665;DHT22;26679;50.872;4.332;2022-10-14T07:20:16;14.80;99.90
39665;DHT22;26679;50.872;4.332;2022-10-14T07:22:42;14.80;99.90
39665;DHT22;26679;50.872;4.332;2022-10-14T07:25:07;14.80;99.90
39665;DHT22;26679;50.872;4.332;2022-10-14T07:27:34;14.90;99.90
39665;DHT22;26679;50.872;4.332;2022-10-14T07:30:00;14.90;99.90
39665;DHT22;26679;50.872;4.332;2022-10-14T07:32:26;14.90;99.90
39665;DHT22;26679;50.872;4.332;2022-10-14T07:34:51;15.00;99.90
39665;DHT22;26679;50.872;4.332;2022-10-14T07:37:17;15.00;99.90
39665;DHT22;26679;50.872;4.332;2022-10-14T07:39:42;15.00;99.90
39665;DHT22;26679;50.872;4.332;2022-10-14T07:42:08;15.00;99.90
39665;DHT22;26679;50.872;4.332;2022-10-14T07:44:33;15.00;99.90
39665;DHT22;26679;50.872;4.332;2022-10-14T07:46:59;15.10;99.90
39665;DHT22;26679;50.872;4.332;2022-10-14T07:49:25;15.20;99.90
39665;DHT22;26679;50.872;4.332;2022-10-14T07:51:51;15.10;99.90
39665;DHT22;26679;50.872;4.332;2022-10-14T07:54:18;15.10;99.90
39665;DHT22;26679;50.872;4.332;2022-10-14T07:56:44;15.10;99.90
39665;DHT22;26679;50.872;4.332;2022-10-14T07:59:10;15.30;99.90
39665;DHT22;26679;50.872;4.332;2022-10-14T08:01:35;15.20;99.90
39665;DHT22;26679;50.872;4.332;2022-10-14T08:04:01;15.10;99.90
39665;DHT22;26679;50.872;4.332;2022-10-14T08:06:27;15.20;99.90
39665;DHT22;26679;50.872;4.332;2022-10-14T08:08:53;15.20;99.90
39665;DHT22;26679;50.872;4.332;2022-10-14T08:11:25;15.20;99.90
39665;DHT22;26679;50.872;4.332;2022-10-14T08:13:52;15.10;99.90
39665;DHT22;26679;50.872;4.332;2022-10-14T08:18:48;15.30;99.90
39665;DHT22;26679;50.872;4.332;2022-10-14T08:21:14;15.30;99.90
39665;DHT22;26679;50.872;4.332;2022-10-14T08:23:39;15.40;99.90
39665;DHT22;26679;50.872;4.332;2022-10-14T08:26:14;15.40;99.90
39665;DHT22;26679;50.872;4.332;2022-10-14T08:28:41;15.50;99.90
39665;DHT22;26679;50.872;4.332;2022-10-14T08:31:07;15.70;99.90
39665;DHT22;26679;50.872;4.332;2022-10-14T08:33:32;15.80;99.90
39665;DHT22;26679;50.872;4.332;2022-10-14T08:35:58;15.90;99.90
39665;DHT22;26679;50.872;4.332;2022-10-14T08:38:25;16.00;99.90
39665;DHT22;26679;50.872;4.332;2022-10-14T08:43:37;15.90;99.90
39665;DHT22;26679;50.872;4.332;2022-10-14T08:46:08;15.90;99.90
39665;DHT22;26679;50.872;4.332;2022-10-14T08:48:35;15.90;99.90
39665;DHT22;26679;50.872;4.332;2022-10-14T08:51:09;16.00;99.90
39665;DHT22;26679;50.872;4.332;2022-10-14T08:53:36;15.90;99.90
39665;DHT22;26679;50.872;4.332;2022-10-14T08:56:03;15.90;99.90
39665;DHT22;26679;50.872;4.332;2022-10-14T08:58:36;16.00;99.90
39665;DHT22;26679;50.872;4.332;2022-10-14T09:01:11;15.80;99.90
39665;DHT22;26679;50.872;4.332;2022-10-14T09:03:38;15.80;99.90
39665;DHT22;26679;50.872;4.332;2022-10-14T09:06:04;15.80;99.90
39665;DHT22;26679;50.872;4.332;2022-10-14T09:08:36;15.70;99.90
39665;DHT22;26679;50.872;4.332;2022-10-14T09:11:03;15.80;99.90
39665;DHT22;26679;50.872;4.332;2022-10-14T09:13:37;15.90;99.90
39665;DHT22;26679;50.872;4.332;2022-10-14T09:16:08;15.90;99.90
39665;DHT22;26679;50.872;4.332;2022-10-14T09:20:59;15.80;99.90
39665;DHT22;26679;50.872;4.332;2022-10-14T09:23:26;16.70;99.90
39665;DHT22;26679;50.872;4.332;2022-10-14T09:26:00;15.90;99.90
39665;DHT22;26679;50.872;4.332;2022-10-14T09:28:33;16.00;99.90
39665;DHT22;26679;50.872;4.332;2022-10-14T09:31:03;16.00;99.90
39665;DHT22;26679;50.872;4.332;2022-10-14T09:33:28;16.00;99.90
39665;DHT22;26679;50.872;4.332;2022-10-14T09:35:54;15.90;99.90
39665;DHT22;26679;50.872;4.332;2022-10-14T09:38:22;15.90;99.90
39665;DHT22;26679;50.872;4.332;2022-10-14T09:40:49;16.00;99.90
39665;DHT22;26679;50.872;4.332;2022-10-14T09:43:17;16.00;99.90
39665;DHT22;26679;50.872;4.332;2022-10-14T09:51:17;16.30;99.90
39665;DHT22;26679;50.872;4.332;2022-10-14T09:53:43;16.40;99.90
39665;DHT22;26679;50.872;4.332;2022-10-14T09:56:11;16.40;99.90
39665;DHT22;26679;50.872;4.332;2022-10-14T09:58:58;16.40;99.90
39665;DHT22;26679;50.872;4.332;2022-10-14T10:01:23;16.40;99.90
39665;DHT22;26679;50.872;4.332;2022-10-14T10:03:50;16.50;99.90
39665;DHT22;26679;50.872;4.332;2022-10-14T10:06:20;16.60;99.90
39665;DHT22;26679;50.872;4.332;2022-10-14T10:09:02;16.60;99.90
39665;DHT22;26679;50.872;4.332;2022-10-14T10:11:29;16.60;99.90
39665;DHT22;26679;50.872;4.332;2022-10-14T10:13:55;16.60;99.90
39665;DHT22;26679;50.872;4.332;2022-10-14T10:16:22;16.60;99.90
39665;DHT22;26679;50.872;4.332;2022-10-14T10:18:50;16.60;99.90
39665;DHT22;26679;50.872;4.332;2022-10-14T10:21:23;16.50;99.90
39665;DHT22;26679;50.872;4.332;2022-10-14T10:23:54;16.50;99.90
39665;DHT22;26679;50.872;4.332;2022-10-14T10:26:21;16.50;99.90
39665;DHT22;26679;50.872;4.332;2022-10-14T10:28:50;16.40;99.90
39665;DHT22;26679;50.872;4.332;2022-10-14T10:38:57;16.20;99.90
39665;DHT22;26679;50.872;4.332;2022-10-14T10:44:06;16.20;99.90
39665;DHT22;26679;50.872;4.332;2022-10-14T10:51:52;16.30;99.90
39665;DHT22;26679;50.872;4.332;2022-10-14T10:54:42;16.20;99.90
39665;DHT22;26679;50.872;4.332;2022-10-14T10:57:12;16.20;99.90
39665;DHT22;26679;50.872;4.332;2022-10-14T10:59:45;16.30;99.90
39665;DHT22;26679;50.872;4.332;2022-10-14T11:10:30;16.30;99.90
39665;DHT22;26679;50.872;4.332;2022-10-14T11:18:13;16.20;99.90
39665;DHT22;26679;50.872;4.332;2022-10-14T11:23:28;16.10;99.90
39665;DHT22;26679;50.872;4.332;2022-10-14T11:26:01;16.20;99.90
39665;DHT22;26679;50.872;4.332;2022-10-14T11:31:04;16.30;99.90
39665;DHT22;26679;50.872;4.332;2022-10-14T11:43:44;17.10;99.90
39665;DHT22;26679;50.872;4.332;2022-10-14T11:46:15;17.10;99.90
39665;DHT22;26679;50.872;4.332;2022-10-14T11:48:44;17.30;99.90
39665;DHT22;26679;50.872;4.332;2022-10-14T11:51:12;17.80;99.90
39665;DHT22;26679;50.872;4.332;2022-10-14T11:58:47;17.60;99.90
39665;DHT22;26679;50.872;4.332;2022-10-14T12:01:16;17.60;99.90
39665;DHT22;26679;50.872;4.332;2022-10-14T12:03:53;17.60;99.90
39665;DHT22;26679;50.872;4.332;2022-10-14T12:09:01;17.80;99.90
39665;DHT22;26679;50.872;4.332;2022-10-14T12:13:56;17.80;99.90
39665;DHT22;26679;50.872;4.332;2022-10-14T12:16:24;17.90;99.90
39665;DHT22;26679;50.872;4.332;2022-10-14T12:18:54;18.00;99.90
39665;DHT22;26679;50.872;4.332;2022-10-14T12:24:06;17.80;99.90
39665;DHT22;26679;50.872;4.332;2022-10-14T12:29:10;17.70;99.90
39665;DHT22;26679;50.872;4.332;2022-10-14T12:31:37;17.50;99.90
39665;DHT22;26679;50.872;4.332;2022-10-14T12:36:34;17.60;99.90
39665;DHT22;26679;50.872;4.332;2022-10-14T12:41:37;17.80;99.90
39665;DHT22;26679;50.872;4.332;2022-10-14T12:44:04;18.00;99.90
39665;DHT22;26679;50.872;4.332;2022-10-14T12:46:41;18.00;99.90
39665;DHT22;26679;50.872;4.332;2022-10-14T12:49:14;18.20;99.90
39665;DHT22;26679;50.872;4.332;2022-10-14T12:54:17;18.10;99.90
39665;DHT22;26679;50.872;4.332;2022-10-14T12:59:29;18.30;99.90
39665;DHT22;26679;50.872;4.332;2022-10-14T13:01:59;18.60;99.90
39665;DHT22;26679;50.872;4.332;2022-10-14T13:04:25;19.00;99.90
39665;DHT22;26679;50.872;4.332;2022-10-14T13:09:30;19.40;99.90
39665;DHT22;26679;50.872;4.332;2022-10-14T13:14:28;19.50;99.90
39665;DHT22;26679;50.872;4.332;2022-10-14T13:24:43;19.10;99.90
39665;DHT22;26679;50.872;4.332;2022-10-14T13:27:14;19.00;99.90
39665;DHT22;26679;50.872;4.332;2022-10-14T13:42:35;18.70;99.90
39665;DHT22;26679;50.872;4.332;2022-10-14T13:45:05;18.70;99.90
39665;DHT22;26679;50.872;4.332;2022-10-14T13:47:33;18.80;99.90
39665;DHT22;26679;50.872;4.332;2022-10-14T13:50:00;18.70;99.90
39665;DHT22;26679;50.872;4.332;2022-10-14T13:52:25;18.70;99.90
39665;DHT22;26679;50.872;4.332;2022-10-14T13:57:28;18.70;99.90
39665;DHT22;26679;50.872;4.332;2022-10-14T13:59:53;18.60;99.90
39665;DHT22;26679;50.872;4.332;2022-10-14T14:02:25;18.60;99.90
39665;DHT22;26679;50.872;4.332;2022-10-14T14:04:57;18.60;99.90
39665;DHT22;26679;50.872;4.332;2022-10-14T14:07:24;18.60;99.90
39665;DHT22;26679;50.872;4.332;2022-10-14T14:09:51;18.50;99.90
39665;DHT22;26679;50.872;4.332;2022-10-14T14:12:20;18.50;99.90
39665;DHT22;26679;50.872;4.332;2022-10-14T14:14:46;18.30;99.90
39665;DHT22;26679;50.872;4.332;2022-10-14T14:17:13;18.40;99.90
39665;DHT22;26679;50.872;4.332;2022-10-14T14:19:41;18.30;99.90
39665;DHT22;26679;50.872;4.332;2022-10-14T14:24:44;18.10;99.90
39665;DHT22;26679;50.872;4.332;2022-10-14T14:27:11;18.10;99.90
39665;DHT22;26679;50.872;4.332;2022-10-14T14:29:39;18.00;99.90
39665;DHT22;26679;50.872;4.332;2022-10-14T14:32:06;17.90;99.90
39665;DHT22;26679;50.872;4.332;2022-10-14T14:34:36;18.00;99.90
39665;DHT22;26679;50.872;4.332;2022-10-14T14:37:02;18.10;99.90
39665;DHT22;26679;50.872;4.332;2022-10-14T14:39:28;18.20;99.90
39665;DHT22;26679;50.872;4.332;2022-10-14T14:41:55;18.20;99.90
39665;DHT22;26679;50.872;4.332;2022-10-14T14:44:22;18.10;99.90
39665;DHT22;26679;50.872;4.332;2022-10-14T14:46:48;18.10;99.90
39665;DHT22;26679;50.872;4.332;2022-10-14T14:49:15;18.10;99.90
39665;DHT22;26679;50.872;4.332;2022-10-14T14:51:42;18.10;99.90
39665;DHT22;26679;50.872;4.332;2022-10-14T14:54:13;18.20;99.90
39665;DHT22;26679;50.872;4.332;2022-10-14T14:56:41;18.10;99.90
39665;DHT22;26679;50.872;4.332;2022-10-14T14:59:14;18.10;99.90
39665;DHT22;26679;50.872;4.332;2022-10-14T15:01:41;18.10;99.90
39665;DHT22;26679;50.872;4.332;2022-10-14T15:04:13;18.20;99.90
39665;DHT22;26679;50.872;4.332;2022-10-14T15:06:49;18.30;99.90
39665;DHT22;26679;50.872;4.332;2022-10-14T15:09:16;18.20;99.90
39665;DHT22;26679;50.872;4.332;2022-10-14T15:11:46;18.20;99.90
39665;DHT22;26679;50.872;4.332;2022-10-14T15:16:48;18.10;99.90
39665;DHT22;26679;50.872;4.332;2022-10-14T15:21:44;18.00;99.90
39665;DHT22;26679;50.872;4.332;2022-10-14T15:24:15;18.00;99.90
39665;DHT22;26679;50.872;4.332;2022-10-14T15:26:42;18.00;99.90
39665;DHT22;26679;50.872;4.332;2022-10-14T15:29:14;18.00;99.90
39665;DHT22;26679;50.872;4.332;2022-10-14T15:31:44;18.00;99.90
39665;DHT22;26679;50.872;4.332;2022-10-14T15:34:17;18.00;99.90
39665;DHT22;26679;50.872;4.332;2022-10-14T15:36:43;18.10;99.90
39665;DHT22;26679;50.872;4.332;2022-10-14T15:39:12;18.00;99.90
39665;DHT22;26679;50.872;4.332;2022-10-14T15:41:38;18.00;99.90
39665;DHT22;26679;50.872;4.332;2022-10-14T15:44:04;17.90;99.90
39665;DHT22;26679;50.872;4.332;2022-10-14T15:46:29;17.90;99.90
39665;DHT22;26679;50.872;4.332;2022-10-14T15:49:15;17.80;99.90
39665;DHT22;26679;50.872;4.332;2022-10-14T15:51:44;17.80;99.90
39665;DHT22;26679;50.872;4.332;2022-10-14T15:54:10;17.70;99.90
39665;DHT22;26679;50.872;4.332;2022-10-14T15:56:36;17.70;99.90
39665;DHT22;26679;50.872;4.332;2022-10-14T15:59:03;17.70;99.90
39665;DHT22;26679;50.872;4.332;2022-10-14T16:01:29;17.70;99.90
39665;DHT22;26679;50.872;4.332;2022-10-14T16:03:58;17.70;99.90
39665;DHT22;26679;50.872;4.332;2022-10-14T16:06:24;17.70;99.90
39665;DHT22;26679;50.872;4.332;2022-10-14T16:08:51;17.70;99.90
39665;DHT22;26679;50.872;4.332;2022-10-14T16:13:54;17.70;99.90
39665;DHT22;26679;50.872;4.332;2022-10-14T16:16:39;17.70;99.90
39665;DHT22;26679;50.872;4.332;2022-10-14T16:19:05;17.70;99.90
39665;DHT22;26679;50.872;4.332;2022-10-14T16:21:31;17.60;99.90
39665;DHT22;26679;50.872;4.332;2022-10-14T16:23:57;17.60;99.90
39665;DHT22;26679;50.872;4.332;2022-10-14T16:26:23;17.60;99.90
39665;DHT22;26679;50.872;4.332;2022-10-14T16:28:49;17.50;99.90
39665;DHT22;26679;50.872;4.332;2022-10-14T16:31:15;17.50;99.90
39665;DHT22;26679;50.872;4.332;2022-10-14T16:33:41;17.40;99.90
39665;DHT22;26679;50.872;4.332;2022-10-14T16:36:06;17.40;99.90
39665;DHT22;26679;50.872;4.332;2022-10-14T16:38:32;17.40;99.90
39665;DHT22;26679;50.872;4.332;2022-10-14T16:40:58;17.40;99.90
39665;DHT22;26679;50.872;4.332;2022-10-14T16:43:25;17.30;99.90
39665;DHT22;26679;50.872;4.332;2022-10-14T16:45:50;17.30;99.90
39665;DHT22;26679;50.872;4.332;2022-10-14T16:48:16;17.30;99.90
39665;DHT22;26679;50.872;4.332;2022-10-14T16:50:50;17.20;99.90
39665;DHT22;26679;50.872;4.332;2022-10-14T16:53:15;17.20;99.90
39665;DHT22;26679;50.872;4.332;2022-10-14T16:55:54;17.20;99.90
39665;DHT22;26679;50.872;4.332;2022-10-14T16:58:20;17.10;99.90
39665;DHT22;26679;50.872;4.332;2022-10-14T17:00:45;17.10;99.90
39665;DHT22;26679;50.872;4.332;2022-10-14T17:03:11;17.00;99.90
39665;DHT22;26679;50.872;4.332;2022-10-14T17:05:36;16.90;99.90
39665;DHT22;26679;50.872;4.332;2022-10-14T17:08:02;16.80;99.90
39665;DHT22;26679;50.872;4.332;2022-10-14T17:10:29;16.80;99.90
39665;DHT22;26679;50.872;4.332;2022-10-14T17:12:54;16.80;99.90
39665;DHT22;26679;50.872;4.332;2022-10-14T17:15:21;16.80;99.90
39665;DHT22;26679;50.872;4.332;2022-10-14T17:17:47;16.70;99.90
39665;DHT22;26679;50.872;4.332;2022-10-14T17:20:12;16.70;99.90
39665;DHT22;26679;50.872;4.332;2022-10-14T17:22:38;16.70;99.90
39665;DHT22;26679;50.872;4.332;2022-10-14T17:25:04;16.80;99.90
39665;DHT22;26679;50.872;4.332;2022-10-14T17:27:32;16.70;99.90
39665;DHT22;26679;50.872;4.332;2022-10-14T17:29:58;16.70;99.90
39665;DHT22;26679;50.872;4.332;2022-10-14T17:32:23;16.80;99.90
39665;DHT22;26679;50.872;4.332;2022-10-14T17:34:52;16.80;99.90
39665;DHT22;26679;50.872;4.332;2022-10-14T17:37:17;16.80;99.90
39665;DHT22;26679;50.872;4.332;2022-10-14T17:39:43;16.80;99.90
39665;DHT22;26679;50.872;4.332;2022-10-14T17:42:08;16.90;99.90
39665;DHT22;26679;50.872;4.332;2022-10-14T17:44:34;16.90;99.90
39665;DHT22;26679;50.872;4.332;2022-10-14T17:47:00;16.90;99.90
39665;DHT22;26679;50.872;4.332;2022-10-14T17:49:26;16.90;99.90
39665;DHT22;26679;50.872;4.332;2022-10-14T17:51:53;16.90;99.90
39665;DHT22;26679;50.872;4.332;2022-10-14T17:54:18;17.10;99.90
39665;DHT22;26679;50.872;4.332;2022-10-14T17:56:44;17.10;99.90
39665;DHT22;26679;50.872;4.332;2022-10-14T17:59:10;17.10;99.90
39665;DHT22;26679;50.872;4.332;2022-10-14T18:01:36;17.20;99.90
39665;DHT22;26679;50.872;4.332;2022-10-14T18:04:01;17.20;99.90
39665;DHT22;26679;50.872;4.332;2022-10-14T18:06:36;17.10;99.90